Summerfield, North Carolina
Current Conditions -  °F | °C
As of 11:54 AM on Monday 22 Dec 2014 (Local Time) from KGSO Reporting Station
Drizzle Drizzle  
Wind Chill: 26°   Ceiling: 300
Heat Index: 35°   Visibility: 1.7mi
Dew Point: 33°   Wind: 14mph
Humidity: 92%   Direction: 50°NE
Pressure: 30.12"   Gusts: NA
Location:  36.21°N, 79.9°W
Report Text: KGSO 221654Z 05012KT 1 3/4SM -DZ BR BKN003 OVC008 02/01 A3012 RMK AO2 SLP202 P0000 T00170006
Loading
Personal Weather Stations






























Interactive Weather Map New forecast layout! Learn more

10-Day Weather Forecast

Advertisements
Track Severe Weather on mobile